Kotwa Airport


Codes: FVOT/
Name: Kotwa Airport
City:
Country: Zimbabwe
Elevation: 2450 ft.

Photos at Kotwa Airport


   Photos courtesy of SpottingLog. You can add your own sightings and photos by signing up for a free trial today.



No photos found.

Weather at Kotwa Airport


Time (UTC)DescriptionTempratureWindCloud coverageVisibilityPressureHumidity
25-Jun-2024 12:00Clear Sky26°C9 mph, 3%10000m1020hPa26%
25-Jun-2024 15:00Clear Sky24°C13 mph, SE5%10000m1020hPa32%
25-Jun-2024 18:00Few Clouds20°C7 mph, SE24%10000m1022hPa54%
25-Jun-2024 21:00Clear Sky13°C2 mph, SE0%10000m1024hPa87%
26-Jun-2024 00:00Clear Sky11°C4 mph, S0%10000m1023hPa93%
26-Jun-2024 03:00Clear Sky11°C2 mph, SW6%10000m1023hPa93%
26-Jun-2024 06:00Few Clouds17°C4 mph, SE16%10000m1024hPa67%
26-Jun-2024 09:00Light Rain23°C13 mph, SE37%10000m1023hPa48%
26-Jun-2024 12:00Light Rain21°C13 mph, SE62%10000m1021hPa54%
26-Jun-2024 15:00Overcast Clouds18°C9 mph, SE91%10000m1022hPa61%
26-Jun-2024 18:00Overcast Clouds16°C7 mph, SE87%10000m1024hPa56%
26-Jun-2024 21:00Broken Clouds17°C7 mph, SE76%10000m1023hPa50%
27-Jun-2024 00:00Broken Clouds12°C0 mph, E52%10000m1023hPa69%
27-Jun-2024 03:00Few Clouds11°C2 mph, SE21%10000m1024hPa73%
27-Jun-2024 06:00Few Clouds17°C4 mph, SE24%10000m1025hPa53%
27-Jun-2024 09:00Scattered Clouds23°C9 mph, E43%10000m1024hPa37%
27-Jun-2024 12:00Scattered Clouds26°C11 mph, E29%10000m1020hPa27%
27-Jun-2024 15:00Scattered Clouds24°C9 mph, E36%10000m1020hPa32%
27-Jun-2024 18:00Scattered Clouds18°C7 mph, E38%10000m1023hPa50%
27-Jun-2024 21:00Clear Sky16°C7 mph, SE0%10000m1024hPa71%
28-Jun-2024 00:00Clear Sky12°C4 mph, SE0%10000m1023hPa93%
28-Jun-2024 03:00Clear Sky12°C4 mph, SE0%10000m1024hPa92%
28-Jun-2024 06:00Clear Sky16°C7 mph, SE0%10000m1025hPa72%
28-Jun-2024 09:00Scattered Clouds22°C13 mph, E25%10000m1023hPa44%
28-Jun-2024 12:00Scattered Clouds23°C11 mph, E49%10000m1020hPa39%
28-Jun-2024 15:00Overcast Clouds19°C9 mph, SE85%10000m1022hPa53%
28-Jun-2024 18:00Broken Clouds15°C7 mph, SE69%10000m1023hPa71%
28-Jun-2024 21:00Clear Sky12°C2 mph, SE0%10000m1023hPa81%
29-Jun-2024 00:00Clear Sky11°C2 mph, S0%10000m1023hPa86%
29-Jun-2024 03:00Clear Sky9°C2 mph, S0%10000m1024hPa94%
29-Jun-2024 06:00Clear Sky14°C2 mph, S0%10000m1025hPa68%
29-Jun-2024 09:00Clear Sky22°C4 mph, E0%10000m1022hPa34%
29-Jun-2024 12:00Clear Sky26°C2 mph, E0%10000m1018hPa25%
29-Jun-2024 15:00Clear Sky22°C4 mph, NE2%10000m1018hPa30%
29-Jun-2024 18:00Clear Sky15°C4 mph, NE2%10000m1020hPa51%
29-Jun-2024 21:00Clear Sky13°C4 mph, SE4%10000m1021hPa56%
30-Jun-2024 00:00Clear Sky11°C4 mph, S2%10000m1021hPa65%
30-Jun-2024 03:00Clear Sky10°C2 mph, S0%10000m1021hPa72%
30-Jun-2024 06:00Clear Sky15°C2 mph, S2%10000m1022hPa48%
30-Jun-2024 09:00Scattered Clouds24°C4 mph, E28%10000m1020hPa28%